createdAt,value
2023-03-31T07:30:50.820Z,93.35
2023-03-31T07:31:53.031Z,90.59
2023-03-31T07:33:47.330Z,87.14
2023-03-31T07:36:03.954Z,84.55
2023-03-31T07:37:12.045Z,82.65
2023-03-31T07:38:13.884Z,82.43
2023-03-31T07:39:15.521Z,80.72
2023-03-31T07:40:23.864Z,81.00
2023-03-31T07:41:26.565Z,79.71
2023-03-31T07:42:27.952Z,78.72
2023-03-31T07:43:29.413Z,79.09
2023-03-31T07:44:33.753Z,78.17
2023-03-31T07:45:36.075Z,77.36
2023-03-31T07:46:37.746Z,78.52
2023-03-31T07:47:40.046Z,77.24
2023-03-31T07:48:41.521Z,78.78
2023-03-31T07:49:42.921Z,77.63
2023-03-31T07:50:44.326Z,76.24
2023-03-31T07:51:45.874Z,76.61
2023-03-31T07:52:47.579Z,77.21
2023-03-31T07:53:49.861Z,76.02
2023-03-31T07:54:51.480Z,73.78
2023-03-31T07:55:52.851Z,74.28
2023-03-31T07:56:54.618Z,74.27
2023-03-31T07:57:56.141Z,73.54
2023-03-31T07:58:57.915Z,74.38
2023-03-31T07:59:59.547Z,74.52
2023-03-31T08:01:01.179Z,72.61
2023-03-31T08:02:02.724Z,73.21
2023-03-31T08:03:04.535Z,72.05
2023-03-31T08:04:06.031Z,72.50
2023-03-31T08:05:07.819Z,72.53
2023-03-31T08:06:09.788Z,72.19
2023-03-31T08:07:13.416Z,72.36
2023-03-31T08:08:14.795Z,70.99
2023-03-31T08:09:16.237Z,71.93
2023-03-31T08:10:21.826Z,72.66
2023-03-31T08:11:24.318Z,72.57
2023-03-31T08:12:25.828Z,72.67
2023-03-31T08:13:27.256Z,72.17
2023-03-31T08:14:40.737Z,71.12
2023-03-31T08:15:43.049Z,70.34
2023-03-31T08:16:44.588Z,71.00
2023-03-31T08:17:46.249Z,69.51
2023-03-31T08:18:47.778Z,69.83
2023-03-31T08:19:50.113Z,70.29
2023-03-31T08:20:51.621Z,71.04
2023-03-31T08:21:53.309Z,70.70
2023-03-31T08:22:54.778Z,71.52
2023-03-31T08:23:56.576Z,71.12
2023-03-31T08:24:57.980Z,70.36
2023-03-31T08:26:20.025Z,70.23
2023-03-31T08:27:21.576Z,70.24
2023-03-31T08:28:23.133Z,71.90
2023-03-31T08:29:24.622Z,70.13
2023-03-31T08:30:26.270Z,70.29
2023-03-31T08:31:29.143Z,70.70
2023-03-31T08:32:32.363Z,72.84
2023-03-31T08:33:34.600Z,73.71
2023-03-31T08:34:36.402Z,72.18
2023-03-31T08:35:38.568Z,71.27
2023-03-31T08:36:40.009Z,70.67
2023-03-31T08:37:41.462Z,70.49
2023-03-31T08:38:47.251Z,70.87
2023-03-31T08:39:48.692Z,70.04
2023-03-31T08:40:50.403Z,69.98
2023-03-31T08:42:02.054Z,71.23
2023-03-31T08:43:12.229Z,69.98
2023-03-31T08:44:26.463Z,70.23
2023-03-31T08:45:33.335Z,68.75
2023-03-31T08:46:35.736Z,69.80
2023-03-31T08:47:40.256Z,69.96
2023-03-31T08:48:48.716Z,70.07
2023-03-31T08:49:56.721Z,70.49
2023-03-31T08:51:04.203Z,70.71
2023-03-31T08:52:12.412Z,70.48
2023-03-31T08:53:23.998Z,69.64
2023-03-31T08:54:38.445Z,70.07
2023-03-31T08:55:51.703Z,70.15
2023-03-31T08:56:53.591Z,69.65
2023-03-31T08:58:30.166Z,69.77
2023-03-31T08:59:34.270Z,69.87
2023-03-31T09:01:17.267Z,69.46
2023-03-31T09:02:48.571Z,69.05
2023-03-31T09:04:12.688Z,67.51
2023-03-31T09:05:23.528Z,67.78
2023-03-31T09:06:38.145Z,68.59
2023-03-31T09:08:04.446Z,69.21
2023-03-31T09:09:14.200Z,68.69
2023-03-31T09:10:24.801Z,68.76
2023-03-31T09:11:31.995Z,69.05
2023-03-31T09:12:56.801Z,68.28
2023-03-31T09:14:10.502Z,68.05
2023-03-31T09:15:26.127Z,69.27
2023-03-31T09:16:45.701Z,68.37
2023-03-31T09:17:51.330Z,68.46
2023-03-31T09:18:59.400Z,67.22
2023-03-31T09:20:21.694Z,66.91
2023-03-31T09:21:31.224Z,65.20
2023-03-31T09:22:37.361Z,64.72
2023-03-31T09:23:44.788Z,64.96
2023-03-31T09:25:00.822Z,65.43
2023-03-31T09:26:04.895Z,64.13
2023-03-31T09:27:11.967Z,63.85
2023-03-31T09:28:21.949Z,64.01
2023-03-31T09:29:42.141Z,64.61
2023-03-31T09:30:43.999Z,63.13
2023-03-31T09:31:46.830Z,62.01
2023-03-31T09:32:52.479Z,62.69
2023-03-31T09:34:01.599Z,60.68
2023-03-31T09:35:21.719Z,59.95
2023-03-31T09:36:23.763Z,59.52
2023-03-31T09:37:30.111Z,59.76
2023-03-31T09:38:31.654Z,60.01
2023-03-31T09:39:33.145Z,60.39
2023-03-31T09:40:34.695Z,59.32
2023-03-31T09:41:43.936Z,59.17
2023-03-31T09:42:54.195Z,60.86
2023-03-31T09:43:55.807Z,59.72
2023-03-31T09:44:57.231Z,59.60
2023-03-31T09:46:09.296Z,60.08
2023-03-31T09:47:28.931Z,60.40
2023-03-31T09:48:36.129Z,60.16
2023-03-31T09:49:39.021Z,60.49
2023-03-31T09:50:46.466Z,60.93
2023-03-31T09:51:59.129Z,61.13
2023-03-31T09:53:04.622Z,56.89
2023-03-31T09:54:29.369Z,60.42
2023-03-31T09:55:53.242Z,62.06
2023-03-31T09:56:55.512Z,61.00
2023-03-31T09:57:59.846Z,59.69
2023-03-31T09:59:02.805Z,58.94
2023-03-31T10:00:19.096Z,58.94
2023-03-31T10:01:23.147Z,57.09
2023-03-31T10:02:36.545Z,56.99
2023-03-31T10:03:56.743Z,57.67
2023-03-31T10:04:58.303Z,57.58
2023-03-31T10:05:59.735Z,56.80
2023-03-31T10:07:03.917Z,56.83
2023-03-31T10:08:17.167Z,56.33
2023-03-31T10:09:21.838Z,57.30
2023-03-31T10:10:33.233Z,56.89
2023-03-31T10:11:37.880Z,56.00
2023-03-31T10:12:39.994Z,55.93
2023-03-31T10:13:47.579Z,55.59
2023-03-31T10:14:51.288Z,57.04
2023-03-31T10:15:54.614Z,57.28
2023-03-31T10:16:57.521Z,58.57
2023-03-31T10:17:59.621Z,57.77
2023-03-31T10:19:16.033Z,58.97
2023-03-31T10:20:27.590Z,59.87
2023-03-31T10:21:38.740Z,60.50
2023-03-31T10:22:44.888Z,61.21
2023-03-31T10:23:47.945Z,61.22
2023-03-31T10:24:51.388Z,63.12
2023-03-31T10:25:53.498Z,64.19
2023-03-31T10:26:57.370Z,62.92
2023-03-31T10:28:01.560Z,61.68
2023-03-31T10:29:11.555Z,61.48
2023-03-31T10:30:20.917Z,60.80
2023-03-31T10:31:26.882Z,62.12
2023-03-31T10:32:34.148Z,62.04
2023-03-31T10:33:46.798Z,61.34
2023-03-31T10:34:48.629Z,62.86
2023-03-31T10:35:56.013Z,62.32
2023-03-31T10:36:57.578Z,62.73
2023-03-31T10:38:06.059Z,62.97
2023-03-31T10:39:09.131Z,62.73
2023-03-31T10:40:19.540Z,62.06
2023-03-31T10:41:24.875Z,61.02
2023-03-31T10:42:27.837Z,60.24
2023-03-31T10:43:36.036Z,59.49
2023-03-31T10:44:39.394Z,59.19
2023-03-31T10:45:52.615Z,58.87
2023-03-31T10:46:54.261Z,59.94
2023-03-31T10:47:58.960Z,59.52
2023-03-31T10:49:00.365Z,59.38
2023-03-31T10:50:04.820Z,59.88
2023-03-31T10:51:25.630Z,60.33
2023-03-31T10:52:27.568Z,61.73
2023-03-31T10:53:29.086Z,62.08
2023-03-31T10:54:30.865Z,61.76
2023-03-31T10:56:08.630Z,61.36
2023-03-31T10:57:10.291Z,62.65
2023-03-31T10:58:21.171Z,65.27
2023-03-31T10:59:44.593Z,69.35
2023-03-31T11:00:59.066Z,70.95
2023-03-31T11:02:24.845Z,74.39
2023-03-31T11:03:49.857Z,75.50
2023-03-31T11:05:15.784Z,78.28
2023-03-31T11:06:26.559Z,77.41
2023-03-31T11:34:24.740Z,91.26
2023-03-31T11:35:54.509Z,89.97
2023-03-31T11:37:18.218Z,89.68
2023-03-31T11:38:40.946Z,89.13
2023-03-31T11:40:08.025Z,88.95
2023-03-31T11:41:21.675Z,87.89
2023-03-31T11:42:27.547Z,88.77
2023-03-31T11:43:48.856Z,88.31
2023-03-31T11:45:02.349Z,85.10
2023-03-31T11:46:12.288Z,86.56
2023-03-31T11:47:18.893Z,84.98
2023-03-31T11:48:44.857Z,85.95
2023-03-31T11:49:52.790Z,83.55
2023-03-31T11:50:56.103Z,80.76
2023-03-31T11:52:03.571Z,78.46
2023-03-31T11:53:16.915Z,78.32
2023-03-31T11:54:28.193Z,76.35
2023-03-31T11:55:32.365Z,76.62
2023-03-31T11:56:38.266Z,75.27
2023-03-31T11:57:46.489Z,75.06
2023-03-31T11:58:53.111Z,74.55
2023-03-31T12:00:07.009Z,75.87
2023-03-31T12:01:29.547Z,75.11
2023-03-31T12:02:44.043Z,74.57
2023-03-31T12:03:57.350Z,73.85
2023-03-31T12:04:59.776Z,71.90
2023-03-31T12:06:17.336Z,71.86
2023-03-31T12:08:00.687Z,72.17
2023-03-31T12:09:50.762Z,72.72
2023-03-31T12:10:58.385Z,72.34
2023-03-31T12:12:07.841Z,72.97
2023-03-31T12:13:23.928Z,71.62
2023-03-31T12:14:29.748Z,71.60
2023-03-31T12:15:37.505Z,73.17
2023-03-31T12:16:46.006Z,72.76
2023-03-31T12:17:55.928Z,72.68
2023-03-31T12:19:16.198Z,71.60
2023-03-31T12:20:32.645Z,70.17
2023-03-31T12:21:37.515Z,70.19
2023-03-31T12:22:43.950Z,69.62
2023-03-31T12:23:45.976Z,69.33
2023-03-31T12:24:48.033Z,68.84
2023-03-31T12:26:01.833Z,68.54
2023-03-31T12:27:14.051Z,68.07
2023-03-31T12:28:17.146Z,68.66
2023-03-31T12:29:42.973Z,67.63
2023-03-31T12:30:46.519Z,67.01
2023-03-31T12:31:51.046Z,66.86
2023-03-31T12:32:55.553Z,68.00
2023-03-31T12:34:08.412Z,66.02
2023-03-31T12:35:37.190Z,67.78
2023-03-31T12:37:16.279Z,64.01
2023-03-31T12:38:33.905Z,64.07
2023-03-31T12:39:53.219Z,63.61
2023-03-31T12:41:07.648Z,62.69
2023-03-31T12:42:15.502Z,63.67
2023-03-31T12:43:49.453Z,64.60
2023-03-31T12:45:01.115Z,62.77
2023-03-31T12:46:28.535Z,62.40
2023-03-31T12:47:59.521Z,61.55
2023-03-31T12:49:32.933Z,62.28
2023-03-31T12:51:03.722Z,61.07
2023-03-31T12:52:22.219Z,61.23
2023-03-31T12:54:01.761Z,62.28
2023-03-31T12:55:33.684Z,62.68
2023-03-31T12:57:00.624Z,65.81
2023-03-31T12:58:31.691Z,67.05
2023-03-31T12:59:36.967Z,69.93
2023-03-31T13:01:08.107Z,72.91
2023-03-31T13:02:09.943Z,74.06
2023-03-31T13:03:36.123Z,74.81
2023-03-31T13:04:38.469Z,76.49
2023-03-31T13:05:47.550Z,77.15
2023-03-31T13:17:36.026Z,83.73
2023-03-31T13:18:38.467Z,83.86
2023-03-31T13:19:41.890Z,81.29
2023-03-31T13:20:43.671Z,81.00
2023-03-31T13:21:56.533Z,81.15
2023-03-31T13:23:04.157Z,82.57
2023-03-31T13:24:06.954Z,80.42
2023-03-31T13:25:31.091Z,79.03
2023-03-31T13:26:32.436Z,80.05
2023-03-31T13:27:34.268Z,80.89
2023-03-31T13:28:43.814Z,81.49
2023-03-31T13:29:46.500Z,80.02
2023-03-31T13:30:55.714Z,80.78
2023-03-31T13:32:00.361Z,82.55
2023-03-31T13:33:12.526Z,80.93
2023-03-31T13:34:14.097Z,80.23
2023-03-31T13:35:25.413Z,80.26
2023-03-31T13:36:33.155Z,80.36
2023-03-31T13:38:02.026Z,80.11
2023-03-31T13:39:26.260Z,80.20
2023-03-31T13:54:23.873Z,78.44
2023-03-31T13:55:43.626Z,78.36
2023-03-31T13:57:11.521Z,76.44
2023-03-31T13:58:39.247Z,75.52
2023-03-31T14:00:12.566Z,74.66
2023-03-31T14:01:35.844Z,75.04
2023-03-31T14:02:48.248Z,74.05
2023-03-31T14:04:24.001Z,71.67
2023-03-31T14:05:30.811Z,71.77
2023-03-31T14:06:38.004Z,71.12
2023-03-31T14:07:49.766Z,71.30
2023-03-31T14:08:56.999Z,71.14
2023-03-31T14:09:59.587Z,71.18
2023-03-31T14:11:17.834Z,70.99
2023-03-31T14:12:34.456Z,70.57
2023-03-31T14:13:36.004Z,70.70
2023-03-31T14:14:40.825Z,70.79
2023-03-31T14:15:46.664Z,71.13
2023-03-31T14:16:54.041Z,71.23
2023-03-31T14:17:55.813Z,70.53
2023-03-31T14:19:23.266Z,69.81
2023-03-31T14:20:33.960Z,70.08
2023-03-31T14:21:46.817Z,70.71
2023-03-31T14:22:58.069Z,69.61
2023-03-31T14:24:28.500Z,69.54
2023-03-31T14:25:58.041Z,70.00
2023-03-31T14:27:18.775Z,69.31
2023-03-31T14:28:32.901Z,69.21
2023-03-31T14:29:45.671Z,68.46
2023-03-31T14:30:52.743Z,68.76
2023-03-31T14:32:09.759Z,68.59
2023-03-31T14:33:29.500Z,67.72
2023-03-31T14:34:46.873Z,68.94
2023-03-31T14:36:08.120Z,68.94
2023-03-31T14:37:13.672Z,69.49
2023-03-31T14:38:20.349Z,69.13
2023-03-31T14:39:24.452Z,68.84
2023-03-31T14:40:26.080Z,70.69
2023-03-31T14:41:30.753Z,71.49
2023-03-31T14:42:44.680Z,70.78
2023-03-31T14:43:51.154Z,70.61
2023-03-31T14:45:03.272Z,69.38
2023-03-31T14:46:07.354Z,69.51
2023-03-31T14:47:16.810Z,69.61
2023-03-31T14:48:18.174Z,68.44
2023-03-31T14:49:25.640Z,68.97
2023-03-31T14:50:34.937Z,70.11
2023-03-31T14:51:36.369Z,69.90
2023-03-31T14:52:37.859Z,70.34
2023-03-31T14:53:39.268Z,69.07
2023-03-31T14:54:41.246Z,68.66
2023-03-31T14:56:55.502Z,67.99
2023-03-31T14:58:00.654Z,68.14
2023-03-31T14:59:03.339Z,68.13
2023-03-31T15:00:08.593Z,67.50
2023-03-31T15:01:17.319Z,67.00
2023-03-31T15:02:29.523Z,66.38
2023-03-31T15:03:33.704Z,66.23
2023-03-31T15:04:44.787Z,66.83
2023-03-31T15:05:48.921Z,67.80
2023-03-31T15:06:53.601Z,67.26
2023-03-31T15:08:00.108Z,66.42
2023-03-31T15:09:04.031Z,65.26
2023-03-31T15:10:06.804Z,65.73
2023-03-31T15:11:15.442Z,66.05
2023-03-31T15:12:22.730Z,64.48
2023-03-31T15:13:33.363Z,63.82
2023-03-31T15:14:48.117Z,64.55
2023-03-31T15:15:49.465Z,64.42
2023-03-31T15:16:51.122Z,64.79
2023-03-31T15:17:52.627Z,63.99
2023-03-31T15:18:54.685Z,63.77
2023-03-31T15:19:58.423Z,64.78
2023-03-31T15:20:59.870Z,65.38
2023-03-31T15:22:20.559Z,65.77
2023-03-31T15:23:28.134Z,65.35
2023-03-31T15:24:30.329Z,65.13
2023-03-31T15:25:42.714Z,64.10
2023-03-31T15:27:01.725Z,64.14
2023-03-31T15:28:10.553Z,62.72
2023-03-31T15:29:41.783Z,62.05
2023-03-31T15:30:44.947Z,61.96
2023-03-31T15:31:46.712Z,62.50
2023-03-31T15:32:48.510Z,62.94
2023-03-31T15:33:50.534Z,62.53
2023-03-31T15:34:52.431Z,63.21
2023-03-31T15:35:53.886Z,62.69
2023-03-31T15:36:57.216Z,63.54
2023-03-31T15:38:00.552Z,64.37
2023-03-31T15:39:01.954Z,64.75
2023-03-31T15:40:09.195Z,65.29
2023-03-31T15:41:16.872Z,66.65
2023-03-31T15:42:19.338Z,66.19
2023-03-31T15:44:02.988Z,65.93
2023-03-31T15:45:52.024Z,65.68
2023-03-31T15:47:12.403Z,65.90
2023-03-31T15:48:21.056Z,66.61
2023-03-31T15:49:24.642Z,67.01
2023-03-31T15:50:29.029Z,67.33
2023-03-31T15:51:41.292Z,67.57
2023-03-31T15:52:54.478Z,68.32
2023-03-31T15:53:56.146Z,69.12
2023-03-31T15:54:57.938Z,68.80
2023-03-31T15:56:00.120Z,69.17
2023-03-31T15:57:11.750Z,69.38
2023-03-31T15:58:16.690Z,69.93
2023-03-31T15:59:34.459Z,70.37
2023-03-31T16:00:54.468Z,71.63
2023-03-31T16:01:57.432Z,71.71
2023-03-31T16:03:01.711Z,71.99
2023-03-31T16:04:08.479Z,72.30
2023-03-31T16:05:53.216Z,72.78
2023-03-31T16:07:08.512Z,73.54
2023-03-31T16:08:14.070Z,74.66
